createdAt,value
2019-01-24T00:00:44.297Z,-1.80
2019-01-24T00:03:12.721Z,-1.70
2019-01-24T00:05:41.499Z,-1.80
2019-01-24T00:08:09.934Z,-1.70
2019-01-24T00:10:38.365Z,-1.60
2019-01-24T00:13:06.813Z,-1.50
2019-01-24T00:15:35.225Z,-1.70
2019-01-24T00:18:03.640Z,-1.80
2019-01-24T00:20:32.053Z,-2.00
2019-01-24T00:23:00.504Z,-2.00
2019-01-24T00:25:28.910Z,-1.80
2019-01-24T00:27:57.690Z,-1.80
2019-01-24T00:30:26.101Z,-1.80
2019-01-24T00:32:54.522Z,-1.80
2019-01-24T00:35:22.941Z,-1.70
2019-01-24T00:37:51.381Z,-1.70
2019-01-24T00:40:21.025Z,-1.60
2019-01-24T00:42:49.445Z,-1.70
2019-01-24T00:45:18.289Z,-1.70
2019-01-24T00:47:46.754Z,-1.60
2019-01-24T00:50:16.329Z,-1.60
2019-01-24T00:52:45.103Z,-1.60
2019-01-24T00:55:16.768Z,-1.40
2019-01-24T00:57:45.326Z,-1.50
2019-01-24T01:00:22.721Z,-1.60
2019-01-24T01:02:51.222Z,-1.60
2019-01-24T01:05:20.463Z,-1.60
2019-01-24T01:07:49.033Z,-1.50
2019-01-24T01:10:17.784Z,-1.30
2019-01-24T01:12:46.233Z,-1.30
2019-01-24T01:15:19.720Z,-1.30
2019-01-24T01:17:48.538Z,-1.20
2019-01-24T01:20:19.409Z,-1.10
2019-01-24T01:22:48.097Z,-1.10
2019-01-24T01:25:16.658Z,-1.10
2019-01-24T01:27:45.407Z,-1.10
2019-01-24T01:30:33.210Z,-1.20
2019-01-24T01:33:01.653Z,-1.30
2019-01-24T01:35:30.071Z,-1.30
2019-01-24T01:37:58.494Z,-1.30
2019-01-24T01:40:27.397Z,-1.30
2019-01-24T01:42:55.882Z,-1.30
2019-01-24T01:45:24.327Z,-1.30
2019-01-24T01:47:52.736Z,-1.20
2019-01-24T01:50:27.097Z,-1.20
2019-01-24T01:52:55.496Z,-1.10
2019-01-24T01:55:23.944Z,-1.10
2019-01-24T01:57:52.343Z,-1.10
2019-01-24T02:00:23.204Z,-1.10
2019-01-24T02:02:51.715Z,-1.10
2019-01-24T02:05:20.131Z,-1.10
2019-01-24T02:07:49.465Z,-1.00
2019-01-24T02:10:22.885Z,-1.00
2019-01-24T02:12:52.033Z,-1.00
2019-01-24T02:15:21.385Z,-1.00
2019-01-24T02:17:50.530Z,-1.00
2019-01-24T02:20:23.626Z,-1.00
2019-01-24T02:22:52.987Z,-1.00
2019-01-24T02:25:21.584Z,-1.00
2019-01-24T02:27:50.098Z,-1.00
2019-01-24T02:30:23.837Z,-1.10
2019-01-24T02:32:52.326Z,-1.00
2019-01-24T02:35:20.902Z,-1.00
2019-01-24T02:37:49.343Z,-1.00
2019-01-24T02:40:17.838Z,-1.00
2019-01-24T02:42:46.256Z,-1.00
2019-01-24T02:45:17.438Z,-1.00
2019-01-24T02:47:45.841Z,-1.00
2019-01-24T02:50:16.923Z,-1.00
2019-01-24T02:52:45.658Z,-1.00
2019-01-24T02:55:15.705Z,-1.00
2019-01-24T02:57:44.294Z,-1.10
2019-01-24T03:00:17.887Z,-1.20
2019-01-24T03:02:46.313Z,-1.20
2019-01-24T03:05:17.725Z,-1.20
2019-01-24T03:07:46.478Z,-1.20
2019-01-24T03:10:15.347Z,-1.20
2019-01-24T03:12:44.172Z,-1.10
2019-01-24T03:15:17.861Z,-1.10
2019-01-24T03:17:46.280Z,-1.20
2019-01-24T03:20:16.525Z,-1.10
2019-01-24T03:22:45.494Z,-1.10
2019-01-24T03:25:16.051Z,-1.00
2019-01-24T03:27:44.629Z,-0.90
2019-01-24T03:30:21.371Z,-0.90
2019-01-24T03:32:50.053Z,-0.90
2019-01-24T03:35:24.343Z,-0.90
2019-01-24T03:37:52.839Z,-0.90
2019-01-24T03:40:21.340Z,-1.00
2019-01-24T03:42:49.807Z,-1.00
2019-01-24T03:45:18.828Z,-1.00
2019-01-24T03:47:47.311Z,-0.90
2019-01-24T03:50:20.608Z,-0.90
2019-01-24T03:52:49.681Z,-0.90
2019-01-24T03:55:20.074Z,-0.90
2019-01-24T03:57:48.685Z,-0.80
2019-01-24T04:00:22.611Z,-0.80
2019-01-24T04:02:51.110Z,-0.70
2019-01-24T04:05:19.754Z,-0.70
2019-01-24T04:07:48.165Z,-0.70
2019-01-24T04:10:18.312Z,-0.70
2019-01-24T04:12:46.711Z,-0.80
2019-01-24T04:15:20.219Z,-0.90
2019-01-24T04:17:49.234Z,-0.90
2019-01-24T04:20:17.721Z,-0.90
2019-01-24T04:22:46.177Z,-0.80
2019-01-24T04:25:14.712Z,-0.80
2019-01-24T04:27:43.226Z,-0.90
2019-01-24T04:30:20.193Z,-0.90
2019-01-24T04:32:48.672Z,-0.90
2019-01-24T04:35:19.965Z,-0.90
2019-01-24T04:37:47.875Z,-0.90
2019-01-24T04:40:18.144Z,-1.10
2019-01-24T04:42:46.624Z,-1.10
2019-01-24T04:45:16.568Z,-1.20
2019-01-24T04:47:45.051Z,-1.20
2019-01-24T04:50:15.501Z,-1.20
2019-01-24T04:52:44.064Z,-1.20
2019-01-24T04:55:15.082Z,-1.30
2019-01-24T04:57:43.491Z,-1.20
2019-01-24T05:00:17.911Z,-1.20
2019-01-24T05:02:46.310Z,-1.30
2019-01-24T05:05:14.724Z,-1.30
2019-01-24T05:07:43.463Z,-1.30
2019-01-24T05:10:12.024Z,-1.40
2019-01-24T05:12:40.443Z,-1.40
2019-01-24T05:15:09.321Z,-1.40
2019-01-24T05:17:37.733Z,-1.40
2019-01-24T05:20:09.181Z,-1.60
2019-01-24T05:22:37.584Z,-1.80
2019-01-24T05:25:09.109Z,-2.00
2019-01-24T05:27:43.605Z,-2.20
2019-01-24T05:30:18.229Z,-2.40
2019-01-24T05:32:46.647Z,-2.40
2019-01-24T05:35:15.129Z,-2.40
2019-01-24T05:37:43.637Z,-2.50
2019-01-24T05:40:12.194Z,-2.50
2019-01-24T05:42:40.691Z,-2.50
2019-01-24T05:45:11.937Z,-2.50
2019-01-24T05:47:40.344Z,-2.30
2019-01-24T05:50:11.155Z,-2.30
2019-01-24T05:52:39.648Z,-2.20
2019-01-24T05:55:10.556Z,-2.10
2019-01-24T05:57:39.107Z,-2.10
2019-01-24T06:00:14.233Z,-2.20
2019-01-24T06:02:42.658Z,-2.20
2019-01-24T06:05:12.318Z,-2.20
2019-01-24T06:07:40.725Z,-2.20
2019-01-24T06:10:15.149Z,-2.20
2019-01-24T06:12:43.572Z,-2.10
2019-01-24T06:15:15.080Z,-2.00
2019-01-24T06:17:43.622Z,-2.10
2019-01-24T06:20:12.209Z,-2.10
2019-01-24T06:22:40.953Z,-2.10
2019-01-24T06:25:11.602Z,-2.00
2019-01-24T06:27:40.115Z,-2.00
2019-01-24T06:30:11.596Z,-2.00
2019-01-24T06:32:40.070Z,-2.00
2019-01-24T06:35:08.650Z,-2.00
2019-01-24T06:37:37.566Z,-2.00
2019-01-24T06:40:08.910Z,-2.00
2019-01-24T06:42:37.418Z,-1.90
2019-01-24T06:45:09.148Z,-1.90
2019-01-24T06:47:37.621Z,-1.90
2019-01-24T06:50:09.736Z,-1.90
2019-01-24T06:52:38.161Z,-1.80
2019-01-24T06:55:09.913Z,-1.80
2019-01-24T06:57:38.378Z,-1.70
2019-01-24T07:00:09.949Z,-1.60
2019-01-24T07:02:38.417Z,-1.50
2019-01-24T07:05:07.098Z,-1.50
2019-01-24T07:07:35.532Z,-1.50
2019-01-24T07:10:06.758Z,-1.50
2019-01-24T07:12:35.465Z,-1.50
2019-01-24T07:15:05.141Z,-1.50
2019-01-24T07:17:52.921Z,-1.50
2019-01-24T07:20:21.755Z,-1.50
2019-01-24T07:22:50.174Z,-1.40
2019-01-24T07:25:26.438Z,-1.50
2019-01-24T07:27:54.882Z,-1.60
2019-01-24T07:30:23.365Z,-1.60
2019-01-24T07:32:51.806Z,-1.80
2019-01-24T07:35:20.641Z,-1.80
2019-01-24T07:37:49.087Z,-1.80
2019-01-24T07:40:20.009Z,-1.80
2019-01-24T07:42:49.209Z,-1.80
2019-01-24T07:45:20.551Z,-1.70
2019-01-24T07:47:48.976Z,-1.60
2019-01-24T07:50:17.473Z,-1.60
2019-01-24T07:52:45.911Z,-1.50
2019-01-24T07:55:14.516Z,-1.50
2019-01-24T07:57:43.503Z,-1.60
2019-01-24T08:00:15.082Z,-1.70
2019-01-24T08:02:43.562Z,-1.70
2019-01-24T08:05:13.667Z,-1.60
2019-01-24T08:07:42.396Z,-1.50
2019-01-24T08:10:13.637Z,-1.60
2019-01-24T08:12:42.141Z,-1.50
2019-01-24T08:15:12.893Z,-1.50
2019-01-24T08:17:42.126Z,-1.40
2019-01-24T08:20:13.619Z,-1.40
2019-01-24T08:22:42.080Z,-1.40
2019-01-24T08:25:11.138Z,-1.30
2019-01-24T08:27:39.933Z,-1.20
2019-01-24T08:30:16.721Z,-1.10
2019-01-24T08:32:45.296Z,-1.10
2019-01-24T08:35:14.012Z,-1.10
2019-01-24T08:37:42.508Z,-0.90
2019-01-24T08:40:16.288Z,-0.90
2019-01-24T08:42:44.747Z,-1.00
2019-01-24T08:45:14.897Z,-1.10
2019-01-24T08:47:43.406Z,-1.10
2019-01-24T08:50:19.634Z,-1.20
2019-01-24T08:52:48.601Z,-1.10
2019-01-24T08:55:22.948Z,-0.90
2019-01-24T08:57:51.385Z,-0.80
2019-01-24T09:00:21.238Z,-0.80
2019-01-24T09:02:50.933Z,-0.80
2019-01-24T09:05:19.765Z,-0.60
2019-01-24T09:07:48.170Z,-0.70
2019-01-24T09:10:19.985Z,-0.70
2019-01-24T09:12:48.385Z,-0.70
2019-01-24T09:15:16.838Z,-0.50
2019-01-24T09:17:45.241Z,-0.70
2019-01-24T09:20:20.629Z,-0.70
2019-01-24T09:22:54.972Z,-0.80
2019-01-24T09:25:19.269Z,-0.80
2019-01-24T09:27:47.704Z,-0.70
2019-01-24T09:30:21.112Z,-0.70
2019-01-24T09:32:49.561Z,-0.60
2019-01-24T09:35:18.047Z,-0.50
2019-01-24T09:37:46.524Z,-0.50
2019-01-24T09:40:22.036Z,-0.50
2019-01-24T09:42:50.528Z,-0.30
2019-01-24T09:45:23.998Z,-0.30
2019-01-24T09:47:54.042Z,-0.50
2019-01-24T09:50:24.875Z,-0.30
2019-01-24T09:52:53.321Z,-0.10
2019-01-24T09:55:21.770Z,0.20
2019-01-24T09:57:50.405Z,0.40
2019-01-24T10:00:24.313Z,0.70
2019-01-24T10:02:53.005Z,0.90
2019-01-24T10:05:21.696Z,0.90
2019-01-24T10:07:50.106Z,0.80
2019-01-24T10:10:23.626Z,0.70
2019-01-24T10:12:54.367Z,0.60
2019-01-24T10:15:23.125Z,0.80
2019-01-24T10:17:51.546Z,1.00
2019-01-24T10:20:22.014Z,1.30
2019-01-24T10:22:50.493Z,1.50
2019-01-24T10:25:21.505Z,1.50
2019-01-24T10:27:50.016Z,1.50
2019-01-24T10:30:23.400Z,1.40
2019-01-24T10:32:52.582Z,1.50
2019-01-24T10:35:21.080Z,1.60
2019-01-24T10:37:49.489Z,1.50
2019-01-24T10:40:23.601Z,1.50
2019-01-24T10:42:52.056Z,1.50
2019-01-24T10:45:21.647Z,1.50
2019-01-24T10:47:51.781Z,1.60
2019-01-24T10:50:22.749Z,1.70
2019-01-24T10:52:51.225Z,1.80
2019-01-24T10:55:21.604Z,1.90
2019-01-24T10:57:50.989Z,1.90
2019-01-24T11:00:28.624Z,1.90
2019-01-24T11:02:57.024Z,1.90
2019-01-24T11:05:25.457Z,1.90
2019-01-24T11:07:53.933Z,1.90
2019-01-24T11:10:22.489Z,2.10
2019-01-24T11:12:51.157Z,2.10
2019-01-24T11:15:24.134Z,2.20
2019-01-24T11:17:52.570Z,2.10
2019-01-24T11:20:21.536Z,1.90
2019-01-24T11:22:50.474Z,2.00
2019-01-24T11:25:21.763Z,2.10
2019-01-24T11:27:50.200Z,2.30
2019-01-24T11:30:21.700Z,2.30
2019-01-24T11:32:50.274Z,2.20
2019-01-24T11:35:21.523Z,2.00
2019-01-24T11:37:50.072Z,2.00
2019-01-24T11:40:19.505Z,2.10
2019-01-24T11:42:48.155Z,2.00
2019-01-24T11:45:19.213Z,2.00
2019-01-24T11:47:47.933Z,1.90
2019-01-24T11:50:18.111Z,1.90
2019-01-24T11:52:46.680Z,2.00
2019-01-24T11:55:22.688Z,2.00
2019-01-24T11:57:51.118Z,2.00
2019-01-24T12:00:22.356Z,2.00
2019-01-24T12:02:50.770Z,2.10
2019-01-24T12:05:19.273Z,2.00
2019-01-24T12:07:47.767Z,2.00
2019-01-24T12:10:22.407Z,1.90
2019-01-24T12:12:50.828Z,1.80
2019-01-24T12:15:22.095Z,1.80
2019-01-24T12:17:50.513Z,1.90
2019-01-24T12:20:20.955Z,1.90
2019-01-24T12:22:49.449Z,2.00
2019-01-24T12:25:17.993Z,2.00
2019-01-24T12:27:46.510Z,2.00
2019-01-24T12:30:23.525Z,2.00
2019-01-24T12:32:52.168Z,1.90
2019-01-24T12:35:21.054Z,1.90
2019-01-24T12:37:49.463Z,1.90
2019-01-24T12:40:17.955Z,1.90
2019-01-24T12:42:46.539Z,1.90
2019-01-24T12:45:23.301Z,2.00
2019-01-24T12:47:51.898Z,2.00
2019-01-24T12:50:20.341Z,2.00
2019-01-24T12:52:48.741Z,2.00
2019-01-24T12:55:17.618Z,1.90
2019-01-24T12:57:46.129Z,1.80
2019-01-24T13:00:25.277Z,1.80
2019-01-24T13:02:53.705Z,1.80
2019-01-24T13:05:22.389Z,1.80
2019-01-24T13:07:50.841Z,1.80
2019-01-24T13:10:25.066Z,1.90
2019-01-24T13:12:53.542Z,1.90
2019-01-24T13:15:24.424Z,1.80
2019-01-24T13:17:52.865Z,1.70
2019-01-24T13:20:21.320Z,1.60
2019-01-24T13:22:49.718Z,1.50
2019-01-24T13:25:23.026Z,1.60
2019-01-24T13:27:51.488Z,1.50
2019-01-24T13:30:22.197Z,1.60
2019-01-24T13:32:50.613Z,1.60
2019-01-24T13:35:19.192Z,1.60
2019-01-24T13:37:47.746Z,1.60
2019-01-24T13:40:18.881Z,1.50
2019-01-24T13:42:47.387Z,1.50
2019-01-24T13:45:21.508Z,1.40
2019-01-24T13:47:50.224Z,1.20
2019-01-24T13:50:19.121Z,1.20
2019-01-24T13:52:48.083Z,1.20
2019-01-24T13:55:16.584Z,1.30
2019-01-24T13:57:45.102Z,1.10
2019-01-24T14:00:17.381Z,1.00
2019-01-24T14:02:47.054Z,1.00
2019-01-24T14:05:18.155Z,0.90
2019-01-24T14:07:46.609Z,0.80
2019-01-24T14:10:17.344Z,0.80
2019-01-24T14:12:45.752Z,0.80
2019-01-24T14:15:18.954Z,0.80
2019-01-24T14:17:47.360Z,0.80
2019-01-24T14:20:20.904Z,0.80
2019-01-24T14:22:49.661Z,0.90
2019-01-24T14:25:21.732Z,0.80
2019-01-24T14:27:50.158Z,0.80
2019-01-24T14:30:23.651Z,0.90
2019-01-24T14:32:52.203Z,0.80
2019-01-24T14:35:24.131Z,0.80
2019-01-24T14:37:53.011Z,0.80
2019-01-24T14:40:21.716Z,0.90
2019-01-24T14:42:50.469Z,0.80
2019-01-24T14:45:24.272Z,0.80
2019-01-24T14:47:52.954Z,0.80
2019-01-24T14:50:23.613Z,0.90
2019-01-24T14:52:52.170Z,0.90
2019-01-24T14:55:20.670Z,0.80
2019-01-24T14:57:49.497Z,0.80
2019-01-24T15:00:29.424Z,0.70
2019-01-24T15:02:58.021Z,0.60
2019-01-24T15:05:26.541Z,0.50
2019-01-24T15:07:55.115Z,0.40
2019-01-24T15:10:23.989Z,0.30
2019-01-24T15:12:52.718Z,0.20
2019-01-24T15:15:22.766Z,0.20
2019-01-24T15:17:52.374Z,0.10
2019-01-24T15:20:21.504Z,0.00
2019-01-24T15:22:50.576Z,0.00
2019-01-24T15:25:20.798Z,-0.10
2019-01-24T15:27:49.361Z,-0.20
2019-01-24T15:30:25.741Z,-0.20
2019-01-24T15:32:54.277Z,-0.10
2019-01-24T15:35:22.926Z,-0.10
2019-01-24T15:37:54.682Z,-0.10
2019-01-24T15:40:24.658Z,-0.10
2019-01-24T15:42:53.331Z,-0.10
2019-01-24T15:45:21.944Z,-0.10
2019-01-24T15:47:50.525Z,-0.10
2019-01-24T15:50:21.179Z,-0.10
2019-01-24T15:52:49.763Z,-0.10
2019-01-24T15:55:18.673Z,-0.20
2019-01-24T15:57:49.490Z,-0.30
2019-01-24T16:00:20.661Z,-0.30
2019-01-24T16:02:49.517Z,-0.30
2019-01-24T16:05:18.081Z,-0.40
2019-01-24T16:07:46.846Z,-0.40
2019-01-24T16:10:18.328Z,-0.40
2019-01-24T16:12:47.139Z,-0.40
2019-01-24T16:15:26.956Z,-0.50
2019-01-24T16:17:55.684Z,-0.50
2019-01-24T16:20:26.753Z,-0.50
2019-01-24T16:22:55.673Z,-0.60
2019-01-24T16:25:27.238Z,-0.60
2019-01-24T16:27:56.294Z,-0.60
2019-01-24T16:30:27.435Z,-0.50
2019-01-24T16:32:56.819Z,-0.60
2019-01-24T16:35:25.665Z,-0.60
2019-01-24T16:37:54.833Z,-0.60
2019-01-24T16:40:25.662Z,-0.60
2019-01-24T16:42:54.449Z,-0.50
2019-01-24T16:45:25.493Z,-0.50
2019-01-24T16:47:54.701Z,-0.50
2019-01-24T16:50:25.148Z,-0.50
2019-01-24T16:52:53.999Z,-0.50
2019-01-24T16:55:23.113Z,-0.50
2019-01-24T16:57:52.570Z,-0.50
2019-01-24T17:00:30.231Z,-0.60
2019-01-24T17:03:00.745Z,-0.50
2019-01-24T17:05:30.774Z,-0.50
2019-01-24T17:07:59.836Z,-0.50
2019-01-24T17:10:29.685Z,-0.50
2019-01-24T17:12:58.608Z,-0.50
2019-01-24T17:15:27.215Z,-0.40
2019-01-24T17:17:56.433Z,-0.40
2019-01-24T17:20:32.204Z,-0.40
2019-01-24T17:23:01.559Z,-0.50
2019-01-24T17:25:33.782Z,-0.50
2019-01-24T17:28:05.973Z,-0.40
2019-01-24T17:30:35.202Z,-0.40
2019-01-24T17:33:05.472Z,-0.40
2019-01-24T17:35:35.586Z,-0.40
2019-01-24T17:38:04.977Z,-0.40
2019-01-24T17:40:37.438Z,-0.40
2019-01-24T17:43:07.061Z,-0.50
2019-01-24T17:45:36.310Z,-0.60
2019-01-24T17:48:06.717Z,-0.70
2019-01-24T17:50:36.044Z,-0.70
2019-01-24T17:53:05.269Z,-0.80
2019-01-24T17:55:36.949Z,-0.80
2019-01-24T17:58:07.469Z,-0.70
2019-01-24T18:00:37.829Z,-0.80
2019-01-24T18:03:06.798Z,-0.80
2019-01-24T18:05:35.793Z,-0.80
2019-01-24T18:08:04.965Z,-0.80
2019-01-24T18:10:34.279Z,-0.90
2019-01-24T18:13:03.579Z,-0.90
2019-01-24T18:15:37.750Z,-1.00
2019-01-24T18:18:10.063Z,-1.00
2019-01-24T18:20:39.600Z,-1.10
2019-01-24T18:23:10.588Z,-1.10
2019-01-24T18:25:39.854Z,-1.20
2019-01-24T18:28:11.190Z,-1.20
2019-01-24T18:30:41.076Z,-1.10
2019-01-24T18:33:10.434Z,-1.10
2019-01-24T18:35:39.924Z,-1.10
2019-01-24T18:38:09.472Z,-1.10
2019-01-24T18:40:39.446Z,-1.20
2019-01-24T18:43:12.222Z,-1.20
2019-01-24T18:45:47.866Z,-1.20
2019-01-24T18:48:17.490Z,-1.20
2019-01-24T18:50:46.573Z,-1.10
2019-01-24T18:53:15.865Z,-1.10
2019-01-24T18:55:45.142Z,-1.10
2019-01-24T18:58:14.565Z,-1.10
2019-01-24T19:00:44.894Z,-1.10
2019-01-24T19:03:14.108Z,-1.10
2019-01-24T19:05:43.825Z,-1.10
2019-01-24T19:08:13.393Z,-1.20
2019-01-24T19:10:42.839Z,-1.20
2019-01-24T19:13:12.099Z,-1.20
2019-01-24T19:15:41.846Z,-1.20
2019-01-24T19:18:12.007Z,-1.20
2019-01-24T19:20:41.423Z,-1.20
2019-01-24T19:23:11.496Z,-1.20
2019-01-24T19:25:41.334Z,-1.30
2019-01-24T19:28:13.029Z,-1.30
2019-01-24T19:30:42.428Z,-1.30
2019-01-24T19:33:12.378Z,-1.40
2019-01-24T19:35:41.876Z,-1.40
2019-01-24T19:38:11.437Z,-1.40
2019-01-24T19:40:41.065Z,-1.30
2019-01-24T19:43:10.337Z,-1.30
2019-01-24T19:45:39.596Z,-1.30
2019-01-24T19:48:09.034Z,-1.30
2019-01-24T19:50:38.570Z,-1.30
2019-01-24T19:53:08.279Z,-1.30
2019-01-24T19:55:37.842Z,-1.30
2019-01-24T19:58:07.702Z,-1.30
2019-01-24T20:00:37.298Z,-1.30
2019-01-24T20:03:06.870Z,-1.30
2019-01-24T20:05:35.936Z,-1.30
2019-01-24T20:08:05.975Z,-1.30
2019-01-24T20:10:35.194Z,-1.40
2019-01-24T20:13:04.775Z,-1.40
2019-01-24T20:15:34.057Z,-1.40
2019-01-24T20:18:03.334Z,-1.40
2019-01-24T20:20:32.617Z,-1.30
2019-01-24T20:23:01.958Z,-1.30
2019-01-24T20:25:33.672Z,-1.30
2019-01-24T20:28:03.473Z,-1.40
2019-01-24T20:30:34.919Z,-1.30
2019-01-24T20:33:04.776Z,-1.30
2019-01-24T20:35:39.907Z,-1.30
2019-01-24T20:38:11.255Z,-1.40
2019-01-24T20:40:41.182Z,-1.40
2019-01-24T20:43:12.168Z,-1.30
2019-01-24T20:45:41.673Z,-1.30
2019-01-24T20:48:11.594Z,-1.40
2019-01-24T20:50:41.102Z,-1.30
2019-01-24T20:53:10.108Z,-1.30
2019-01-24T20:55:39.074Z,-1.30
2019-01-24T20:58:11.506Z,-1.30
2019-01-24T21:00:41.090Z,-1.30
2019-01-24T21:03:10.671Z,-1.30
2019-01-24T21:05:39.862Z,-1.20
2019-01-24T21:08:08.992Z,-1.20
2019-01-24T21:10:38.189Z,-1.30
2019-01-24T21:13:08.177Z,-1.20
2019-01-24T21:15:37.711Z,-1.30
2019-01-24T21:18:06.997Z,-1.40
2019-01-24T21:20:36.141Z,-1.30
2019-01-24T21:23:05.577Z,-1.40
2019-01-24T21:25:34.423Z,-1.30
2019-01-24T21:28:03.109Z,-1.30
2019-01-24T21:30:34.411Z,-1.30
2019-01-24T21:33:03.544Z,-1.30
2019-01-24T21:35:32.202Z,-1.30
2019-01-24T21:38:02.322Z,-1.30
2019-01-24T21:40:30.958Z,-1.30
2019-01-24T21:42:59.800Z,-1.40
2019-01-24T21:45:30.940Z,-1.30
2019-01-24T21:47:59.433Z,-1.30
2019-01-24T21:50:32.707Z,-1.40
2019-01-24T21:53:01.301Z,-1.50
2019-01-24T21:55:29.962Z,-1.40
2019-01-24T21:57:58.372Z,-1.50
2019-01-24T22:00:28.956Z,-1.50
2019-01-24T22:02:57.664Z,-1.50
2019-01-24T22:05:26.312Z,-1.40
2019-01-24T22:07:55.084Z,-1.50
2019-01-24T22:10:25.765Z,-1.40
2019-01-24T22:12:54.269Z,-1.50
2019-01-24T22:15:25.706Z,-1.60
2019-01-24T22:17:55.447Z,-1.60
2019-01-24T22:20:23.854Z,-1.50
2019-01-24T22:22:52.285Z,-1.50
2019-01-24T22:25:26.190Z,-1.40
2019-01-24T22:27:54.716Z,-1.40
2019-01-24T22:30:33.564Z,-1.50
2019-01-24T22:33:02.007Z,-1.50
2019-01-24T22:35:30.472Z,-1.40
2019-01-24T22:37:58.991Z,-1.40
2019-01-24T22:40:27.412Z,-1.40
2019-01-24T22:42:55.829Z,-1.40
2019-01-24T22:45:25.628Z,-1.40
2019-01-24T22:47:54.267Z,-1.50
2019-01-24T22:50:22.778Z,-1.50
2019-01-24T22:52:51.377Z,-1.60
2019-01-24T22:55:21.046Z,-1.60
2019-01-24T22:57:50.107Z,-1.60
2019-01-24T23:00:48.463Z,-1.60
2019-01-24T23:03:35.472Z,-1.70
2019-01-24T23:06:04.760Z,-1.70
2019-01-24T23:08:33.266Z,-1.70
2019-01-24T23:11:02.309Z,-1.70
2019-01-24T23:13:30.825Z,-1.70
2019-01-24T23:15:59.253Z,-1.60
2019-01-24T23:18:27.731Z,-1.60
2019-01-24T23:20:56.205Z,-1.60
2019-01-24T23:23:24.714Z,-1.50
2019-01-24T23:25:53.146Z,-1.40
2019-01-24T23:28:21.569Z,-1.40
2019-01-24T23:30:50.129Z,-1.40
2019-01-24T23:33:18.664Z,-1.40
2019-01-24T23:35:47.096Z,-1.40
2019-01-24T23:38:15.573Z,-1.40
2019-01-24T23:40:44.160Z,-1.50
2019-01-24T23:43:13.063Z,-1.50
2019-01-24T23:45:41.500Z,-1.50
2019-01-24T23:48:10.009Z,-1.50
2019-01-24T23:50:38.487Z,-1.60
2019-01-24T23:53:06.976Z,-1.60
2019-01-24T23:55:35.450Z,-1.60
2019-01-24T23:58:04.140Z,-1.60
